Time;durP1;ratioP1;P1;durP2;ratioP2;P2;SDS_P1;SDS_P2;PMS_P1;PMS_P2;Temp;Humidity;BMP_temperature;BMP_pressure;BME280_temperature;BME280_humidity;BME280_pressure;Samples;Min_cycle;Max_cycle;Signal;HPM_P1;HPM_P2
2022/07/01 00:01:28;;;;;;;6.93;6.40;;;;;;;26.97;42.06;95065.50;6244448;27;103962;-53
2022/07/01 00:04:32;;;;;;;6.10;5.50;;;;;;;26.83;42.29;95048.94;6257800;27;102737;-53
2022/07/01 00:07:35;;;;;;;8.63;5.50;;;;;;;26.75;42.02;95047.16;6232715;27;103368;-54
2022/07/01 00:10:38;;;;;;;8.77;5.90;;;;;;;26.79;41.50;95056.88;6221856;27;104131;-55
2022/07/01 00:13:43;;;;;;;5.40;4.90;;;;;;;26.79;42.22;95059.56;6233347;27;103985;-54
2022/07/01 00:16:46;;;;;;;5.77;5.20;;;;;;;26.78;41.80;95063.38;6223869;28;103004;-53
2022/07/01 00:19:50;;;;;;;5.57;4.80;;;;;;;26.77;42.24;95064.47;6233623;27;103098;-54
2022/07/01 00:22:53;;;;;;;6.27;5.77;;;;;;;26.79;42.26;95069.53;6223095;27;103414;-55
2022/07/01 00:25:56;;;;;;;6.83;6.23;;;;;;;26.83;41.84;95075.78;6229263;28;103976;-53
2022/07/01 00:29:01;;;;;;;7.20;6.60;;;;;;;26.91;41.86;95079.50;6230220;27;103033;-53
2022/07/01 00:32:05;;;;;;;6.60;6.10;;;;;;;27.01;41.75;95077.13;6224355;28;103832;-56
2022/07/01 00:35:10;;;;;;;7.13;6.53;;;;;;;27.08;41.97;95069.28;6232971;27;103518;-55
2022/07/01 00:38:13;;;;;;;6.17;5.77;;;;;;;27.18;40.93;95070.72;6231845;27;103146;-55
2022/07/01 00:41:16;;;;;;;7.40;6.50;;;;;;;27.20;41.69;95065.00;6230518;27;103280;-55
2022/07/01 00:44:21;;;;;;;7.07;6.37;;;;;;;27.23;41.74;95077.78;6207027;28;104119;-54
2022/07/01 00:47:26;;;;;;;6.47;6.00;;;;;;;27.26;41.74;95083.31;6227567;27;104022;-54
2022/07/01 00:50:29;;;;;;;8.30;7.47;;;;;;;27.19;41.39;95083.03;6223008;28;104060;-55
2022/07/01 00:53:33;;;;;;;6.43;5.93;;;;;;;27.10;41.46;95080.47;6237875;27;102992;-53
2022/07/01 00:56:36;;;;;;;7.13;6.43;;;;;;;27.14;41.88;95086.75;6225184;27;103221;-53
2022/07/01 00:59:41;;;;;;;6.87;6.33;;;;;;;27.04;41.86;95081.03;6232610;28;103503;-54
2022/07/01 01:02:44;;;;;;;7.87;7.17;;;;;;;26.98;41.73;95077.78;6237877;28;104212;-55
2022/07/01 01:05:47;;;;;;;7.53;6.90;;;;;;;26.93;41.85;95082.63;6230146;27;104210;-56
2022/07/01 01:08:51;;;;;;;7.10;6.47;;;;;;;26.82;42.44;95076.91;6234729;27;102782;-54
2022/07/01 01:11:54;;;;;;;8.73;7.93;;;;;;;26.78;42.46;95076.78;6237577;27;104810;-54
2022/07/01 01:14:58;;;;;;;6.73;6.23;;;;;;;26.77;42.04;95080.59;6235464;27;103568;-54
2022/07/01 01:18:02;;;;;;;6.27;5.77;;;;;;;26.69;42.22;95080.69;6226361;28;107011;-56
2022/07/01 01:21:07;;;;;;;7.63;7.10;;;;;;;26.70;42.51;95071.50;6237526;27;103269;-51
2022/07/01 01:24:10;;;;;;;7.13;6.53;;;;;;;26.68;42.70;95074.53;6235211;27;104078;-53
2022/07/01 01:27:13;;;;;;;6.60;6.10;;;;;;;26.80;41.92;95077.22;6234618;27;103269;-55
2022/07/01 01:30:16;;;;;;;6.27;5.67;;;;;;;26.92;42.19;95067.63;6225089;27;103652;-53
2022/07/01 01:33:19;;;;;;;6.40;5.90;;;;;;;27.02;42.16;95069.84;6235594;27;103176;-53
2022/07/01 01:36:24;;;;;;;6.77;6.10;;;;;;;27.07;41.31;95078.47;6235965;27;104307;-53
2022/07/01 01:39:27;;;;;;;6.77;6.13;;;;;;;27.14;41.43;95084.06;6231813;27;103076;-53
2022/07/01 01:42:30;;;;;;;6.47;5.93;;;;;;;27.16;41.54;95078.34;6230653;27;104205;-53
2022/07/01 01:45:33;;;;;;;7.40;6.80;;;;;;;27.21;41.54;95080.00;6232982;27;103506;-53
2022/07/01 01:48:37;;;;;;;7.23;6.63;;;;;;;27.21;42.18;95074.63;6233780;27;103067;-54
2022/07/01 01:51:42;;;;;;;8.37;7.60;;;;;;;27.23;41.49;95078.56;6228326;27;103342;-54
2022/07/01 01:54:46;;;;;;;7.80;7.20;;;;;;;27.16;41.62;95075.66;6234780;27;103246;-51
2022/07/01 01:57:49;;;;;;;7.57;6.73;;;;;;;26.97;41.95;95072.75;6234469;27;104315;-55
2022/07/01 02:00:52;;;;;;;6.80;6.30;;;;;;;26.92;42.51;95083.75;6233157;27;103129;-54
2022/07/01 02:03:56;;;;;;;6.53;6.00;;;;;;;26.84;42.56;95078.13;6225440;28;104951;-55
2022/07/01 02:07:01;;;;;;;6.03;5.63;;;;;;;26.75;42.49;95080.16;6234994;27;103036;-55
2022/07/01 02:10:05;;;;;;;5.80;5.30;;;;;;;26.78;42.60;95086.75;6236067;27;103325;-54
2022/07/01 02:13:08;;;;;;;6.40;5.90;;;;;;;26.77;42.58;95085.19;6236494;27;104204;-56
2022/07/01 02:16:11;;;;;;;5.77;5.27;;;;;;;26.77;42.37;95094.03;6221336;27;103444;-56
2022/07/01 02:19:14;;;;;;;5.67;5.27;;;;;;;26.74;42.36;95101.97;6235450;27;102730;-56
2022/07/01 02:22:19;;;;;;;7.60;6.97;;;;;;;26.79;42.27;95097.16;6235318;27;103054;-57
2022/07/01 02:25:22;;;;;;;7.00;6.50;;;;;;;26.89;42.81;95095.94;6224950;28;104111;-56
2022/07/01 02:28:25;;;;;;;7.03;6.53;;;;;;;26.96;42.44;95103.44;6234593;27;102828;-56
2022/07/01 02:31:28;;;;;;;7.00;6.30;;;;;;;27.04;42.77;95102.53;6234986;28;103189;-56
2022/07/01 02:34:31;;;;;;;7.30;6.70;;;;;;;27.06;42.33;95111.06;6233941;27;102976;-56
2022/07/01 02:37:36;;;;;;;8.70;7.83;;;;;;;26.99;42.01;95102.75;6223720;28;105697;-56
2022/07/01 02:40:39;;;;;;;6.90;6.40;;;;;;;26.97;42.12;95118.44;6235665;27;102834;-56
2022/07/01 02:43:43;;;;;;;6.80;6.20;;;;;;;27.04;42.33;95126.69;6235964;27;103029;-55
2022/07/01 02:46:46;;;;;;;7.57;6.97;;;;;;;27.02;42.62;95126.25;6234340;28;104177;-55
2022/07/01 02:49:49;;;;;;;8.27;7.57;;;;;;;26.91;42.59;95128.63;6222690;28;103436;-56
2022/07/01 02:52:53;;;;;;;7.20;6.50;;;;;;;26.81;42.11;95129.81;6234651;27;103091;-58
2022/07/01 02:55:57;;;;;;;6.03;5.43;;;;;;;26.74;42.18;95126.91;6231857;28;104423;-56
2022/07/01 02:59:00;;;;;;;5.70;5.30;;;;;;;26.68;42.83;95135.50;6231412;27;103055;-55
2022/07/01 03:02:04;;;;;;;6.80;6.30;;;;;;;26.67;42.58;95141.97;6223286;27;104656;-55
2022/07/01 03:05:08;;;;;;;6.70;6.00;;;;;;;26.63;42.57;95141.88;6228661;28;103111;-57
2022/07/01 03:08:13;;;;;;;7.67;5.77;;;;;;;26.48;43.72;95140.56;6230704;27;103080;-56
2022/07/01 03:11:16;;;;;;;6.63;5.93;;;;;;;26.52;43.58;95149.53;6212063;27;103605;-57
2022/07/01 03:14:19;;;;;;;7.70;5.97;;;;;;;26.61;43.16;95146.75;6231534;27;103198;-55
2022/07/01 03:17:23;;;;;;;7.30;5.93;;;;;;;26.79;43.30;95153.53;6235608;27;103197;-55
2022/07/01 03:20:26;;;;;;;7.53;6.40;;;;;;;26.97;42.28;95156.81;6232770;27;104160;-55
2022/07/01 03:23:30;;;;;;;10.13;6.07;;;;;;;27.07;42.36;95160.97;6215079;28;103240;-56
2022/07/01 03:26:34;;;;;;;6.20;5.27;;;;;;;27.15;42.14;95157.38;6223662;28;105893;-55
2022/07/01 03:29:40;;;;;;;5.87;5.37;;;;;;;27.18;42.14;95144.06;6229164;28;103012;-54
2022/07/01 03:32:43;;;;;;;6.00;5.43;;;;;;;27.22;42.08;95146.88;6227845;28;103561;-54
2022/07/01 03:35:46;;;;;;;5.37;4.90;;;;;;;27.07;42.90;95164.44;6222268;27;104961;-56
2022/07/01 03:38:51;;;;;;;6.57;5.87;;;;;;;26.97;43.06;95158.72;6235166;27;102993;-56
2022/07/01 03:41:54;;;;;;;5.80;4.90;;;;;;;26.85;43.71;95165.63;6233059;27;102913;-58
2022/07/01 03:44:57;;;;;;;6.13;5.53;;;;;;;26.95;43.16;95161.75;6222887;27;104218;-55
2022/07/01 03:48:02;;;;;;;8.80;5.87;;;;;;;27.00;42.88;95163.41;6234543;27;104107;-56
2022/07/01 03:51:05;;;;;;;6.77;6.07;;;;;;;26.89;42.66;95154.25;6209440;28;103897;-57
2022/07/01 03:57:30;;;;;;;6.37;5.67;;;;;;;27.16;43.02;95140.13;6217538;28;103882;-56
2022/07/01 04:00:35;;;;;;;9.00;5.63;;;;;;;27.19;43.65;95152.91;6230410;28;104041;-55
2022/07/01 04:03:38;;;;;;;7.97;5.97;;;;;;;27.27;42.73;95152.03;6229706;27;103047;-55
2022/07/01 04:06:41;;;;;;;6.83;5.60;;;;;;;27.30;42.56;95153.28;6258076;27;104463;-56
2022/07/01 04:09:46;;;;;;;6.50;5.83;;;;;;;27.16;43.96;95165.09;6233491;27;103228;-56
2022/07/01 04:12:49;;;;;;;9.20;5.60;;;;;;;27.08;43.32;95173.28;6233573;27;103068;-56
2022/07/01 04:16:13;;;;;;;6.10;5.60;;;;;;;27.01;44.00;95163.06;6232143;27;104294;-55
2022/07/01 04:19:17;;;;;;;7.33;5.80;;;;;;;26.87;45.02;95170.66;6219042;27;103539;-57
2022/07/01 04:22:36;;;;;;;6.43;5.83;;;;;;;26.85;44.37;95165.63;6232055;27;102833;-56
2022/07/01 04:25:40;;;;;;;8.00;5.90;;;;;;;26.87;43.99;95166.06;6237761;27;103174;-56
2022/07/01 04:28:44;;;;;;;6.93;6.23;;;;;;;26.85;44.77;95179.06;6239228;28;104139;-56
2022/07/01 04:31:47;;;;;;;9.23;5.83;;;;;;;26.60;44.56;95174.72;6227085;27;102832;-55
2022/07/01 04:34:50;;;;;;;10.00;5.77;;;;;;;26.43;44.83;95174.91;6237912;27;104703;-55
2022/07/01 04:37:57;;;;;;;6.20;5.27;;;;;;;26.54;44.58;95168.75;6238768;27;103270;-57
2022/07/01 04:44:22;;;;;;;10.23;5.83;;;;;;;26.60;44.58;95177.41;6234050;27;103946;-57
2022/07/01 04:47:25;;;;;;;6.80;6.20;;;;;;;26.25;44.79;95174.25;6238169;27;104317;-56
2022/07/01 04:50:28;;;;;;;5.93;5.43;;;;;;;26.47;44.84;95187.31;6236413;27;104284;-57
2022/07/01 04:53:31;;;;;;;6.63;5.77;;;;;;;26.74;44.09;95179.84;6225749;27;104275;-56
2022/07/01 04:56:37;;;;;;;6.20;5.63;;;;;;;26.80;43.86;95173.13;6235323;27;103187;-57
2022/07/01 04:59:45;;;;;;;5.93;5.43;;;;;;;26.73;43.95;95184.41;6236197;28;104197;-57
2022/07/01 05:02:48;;;;;;;6.20;5.63;;;;;;;26.63;44.38;95174.09;6235655;27;103197;-56
2022/07/01 05:05:52;;;;;;;6.17;5.57;;;;;;;26.56;44.59;95179.97;6228191;27;104524;-56
2022/07/01 05:08:55;;;;;;;6.30;5.70;;;;;;;26.56;45.24;95171.16;6237669;27;103192;-57
2022/07/01 05:11:59;;;;;;;6.67;6.17;;;;;;;26.75;44.03;95176.81;6238178;27;103259;-56
2022/07/01 05:15:03;;;;;;;6.50;6.00;;;;;;;26.79;43.98;95172.34;6234430;27;103734;-54
2022/07/01 05:24:47;;;;;;;6.87;6.00;;;;;;;26.89;44.13;95178.41;6236513;27;102824;-55
2022/07/01 05:27:51;;;;;;;6.63;6.03;;;;;;;26.91;44.35;95176.19;6226212;27;103256;-56
2022/07/01 05:30:54;;;;;;;6.90;6.30;;;;;;;26.71;45.47;95167.03;6237490;27;103187;-57
2022/07/01 05:33:58;;;;;;;6.07;5.53;;;;;;;26.65;45.71;95177.22;6237090;27;103305;-57
2022/07/01 05:37:06;;;;;;;7.13;5.90;;;;;;;26.84;44.79;95176.69;6236466;27;103226;-56
2022/07/01 05:40:10;;;;;;;6.43;5.93;;;;;;;26.98;44.94;95176.41;6226239;27;103312;-55
2022/07/01 05:43:15;;;;;;;6.97;6.43;;;;;;;27.02;44.89;95178.06;6237086;27;103123;-57
2022/07/01 05:46:18;;;;;;;7.40;6.70;;;;;;;27.08;44.99;95175.97;6236832;27;103469;-56
2022/07/01 05:49:21;;;;;;;9.90;7.03;;;;;;;27.15;44.19;95174.28;6232082;27;103534;-55
2022/07/01 05:52:24;;;;;;;7.60;7.00;;;;;;;27.15;44.74;95181.56;6231844;27;103276;-56
2022/07/01 05:55:27;;;;;;;8.23;7.00;;;;;;;27.10;44.13;95176.41;6236063;28;104322;-57
2022/07/01 05:58:32;;;;;;;8.17;7.47;;;;;;;27.04;44.56;95175.06;6236655;28;103232;-56
2022/07/01 06:01:35;;;;;;;8.23;7.53;;;;;;;27.05;44.69;95179.31;6226900;28;104282;-57
2022/07/01 06:04:38;;;;;;;8.67;7.67;;;;;;;27.02;44.76;95174.59;6237015;28;103721;-56
2022/07/01 06:07:42;;;;;;;8.17;7.47;;;;;;;27.01;44.38;95173.03;6236422;27;103131;-56
2022/07/01 06:10:46;;;;;;;6.87;6.37;;;;;;;26.99;44.02;95180.66;6236470;27;102685;-56
2022/07/01 06:13:50;;;;;;;7.50;6.90;;;;;;;26.99;44.56;95186.81;6225881;27;103112;-55
2022/07/01 06:16:53;;;;;;;7.73;7.03;;;;;;;26.99;44.53;95176.06;6237038;28;104057;-56
2022/07/01 06:19:56;;;;;;;7.77;7.07;;;;;;;27.11;43.77;95183.34;6236508;27;102809;-56
2022/07/01 06:22:59;;;;;;;7.23;6.60;;;;;;;27.25;44.10;95183.81;6232781;27;103843;-54
2022/07/01 06:26:03;;;;;;;7.37;6.67;;;;;;;27.28;43.70;95185.88;6230127;28;104297;-56
2022/07/01 06:29:07;;;;;;;9.77;6.70;;;;;;;27.38;43.72;95188.09;6236338;27;104039;-55
2022/07/01 06:32:10;;;;;;;7.57;6.27;;;;;;;27.49;43.14;95193.81;6236153;28;104061;-56
2022/07/01 06:35:13;;;;;;;6.67;6.17;;;;;;;27.60;43.06;95191.47;6226666;27;104038;-56
2022/07/01 06:38:16;;;;;;;6.20;5.60;;;;;;;27.68;43.41;95190.53;6235534;28;104302;-55
2022/07/01 06:41:29;;;;;;;6.20;5.60;;;;;;;27.68;43.08;95169.81;6235926;27;103258;-56
2022/07/01 06:44:33;;;;;;;7.53;6.93;;;;;;;27.83;43.07;95187.16;6235767;27;103419;-56
2022/07/01 06:47:37;;;;;;;7.90;6.10;;;;;;;27.77;42.87;95183.16;6225841;27;103137;-56
2022/07/01 06:50:40;;;;;;;7.30;6.60;;;;;;;27.73;43.22;95174.97;6235973;27;103476;-56
2022/07/01 06:53:44;;;;;;;7.33;6.63;;;;;;;27.86;42.59;95183.81;6235952;27;104761;-56
2022/07/01 06:56:47;;;;;;;7.70;7.00;;;;;;;27.92;42.86;95192.44;6235246;28;104100;-56
2022/07/01 06:59:52;;;;;;;7.00;6.40;;;;;;;27.80;43.44;95187.06;6225808;28;103645;-57
2022/07/01 07:02:55;;;;;;;9.33;7.00;;;;;;;27.75;43.52;95185.38;6235784;27;103181;-56
2022/07/01 07:06:00;;;;;;;8.03;7.20;;;;;;;27.68;43.30;95182.47;6236007;27;104022;-55
2022/07/01 07:09:03;;;;;;;8.80;8.00;;;;;;;27.58;43.91;95185.63;6227764;27;104021;-62
2022/07/01 07:12:07;;;;;;;10.77;6.83;;;;;;;27.49;43.77;95187.66;6234982;27;103059;-56
2022/07/01 07:15:12;;;;;;;11.13;8.17;;;;;;;27.46;43.84;95183.72;6235408;27;104210;-56
2022/07/01 07:18:17;;;;;;;7.97;7.20;;;;;;;27.52;44.24;95190.44;6235813;28;103293;-55
2022/07/01 07:21:21;;;;;;;8.53;6.97;;;;;;;27.51;44.24;95182.72;6224492;28;103084;-56
2022/07/01 07:24:24;;;;;;;9.27;8.20;;;;;;;27.54;44.96;95190.09;6235319;28;104296;-56
2022/07/01 07:27:27;;;;;;;10.03;7.27;;;;;;;27.81;44.94;95194.78;6234684;27;104190;-56
2022/07/01 07:30:37;;;;;;;9.30;8.07;;;;;;;27.88;44.65;95188.84;6235096;27;103282;-56
2022/07/01 07:33:40;;;;;;;10.43;8.47;;;;;;;27.92;43.73;95192.44;6224860;28;104101;-55
2022/07/01 07:36:43;;;;;;;8.87;7.87;;;;;;;28.03;44.45;95190.84;6234610;27;103247;-56
2022/07/01 07:39:47;;;;;;;8.60;7.80;;;;;;;27.99;43.93;95185.34;6234992;27;103070;-55
2022/07/01 07:42:50;;;;;;;9.63;7.60;;;;;;;28.04;44.23;95176.25;6230117;28;104032;-55
2022/07/01 07:45:54;;;;;;;10.20;7.83;;;;;;;28.16;44.04;95178.13;6229809;27;103181;-58
2022/07/01 07:48:57;;;;;;;8.50;6.30;;;;;;;28.20;44.03;95173.63;6234820;27;103026;-56
2022/07/01 07:52:00;;;;;;;10.00;8.53;;;;;;;28.32;43.67;95177.06;6234673;28;104100;-55
2022/07/01 07:55:04;;;;;;;8.20;7.50;;;;;;;28.35;43.37;95175.59;6224774;27;105574;-58
2022/07/01 07:58:08;;;;;;;8.97;7.53;;;;;;;28.32;43.96;95170.91;6232959;27;103154;-58
2022/07/01 08:01:12;;;;;;;9.63;8.00;;;;;;;28.32;43.86;95168.22;6234435;27;103370;-56
2022/07/01 08:04:18;;;;;;;7.70;7.00;;;;;;;28.37;43.41;95176.03;6235319;27;103074;-56
2022/07/01 08:07:21;;;;;;;9.90;7.43;;;;;;;28.32;44.43;95173.59;6223512;27;103976;-56
2022/07/01 08:10:24;;;;;;;8.93;8.03;;;;;;;28.27;44.02;95174.63;6234758;28;104491;-55
2022/07/01 08:13:28;;;;;;;11.73;7.70;;;;;;;28.19;43.89;95158.63;6234398;27;103830;-56
2022/07/01 08:16:32;;;;;;;10.40;8.53;;;;;;;28.15;43.84;95157.75;6231430;27;103142;-55
2022/07/01 08:19:36;;;;;;;9.87;7.60;;;;;;;28.05;44.10;95151.69;6229018;27;102950;-56
2022/07/01 08:22:39;;;;;;;11.67;8.90;;;;;;;27.98;44.12;95154.19;6234254;28;104481;-55
2022/07/01 08:25:42;;;;;;;12.67;8.63;;;;;;;27.94;44.52;95156.00;6234139;27;103192;-56
2022/07/01 08:28:45;;;;;;;10.70;9.57;;;;;;;27.91;44.04;95147.84;6222250;27;103028;-56
2022/07/01 08:31:49;;;;;;;10.20;9.30;;;;;;;28.10;43.63;95147.22;6230731;28;104451;-53
2022/07/01 08:34:56;;;;;;;10.10;9.10;;;;;;;28.34;43.61;95147.91;6216096;28;103562;-52
2022/07/01 08:37:59;;;;;;;9.53;8.30;;;;;;;28.43;43.40;95153.16;6207264;28;104583;-55
2022/07/01 08:41:04;;;;;;;9.67;8.77;;;;;;;28.56;43.59;95156.56;6221155;28;104283;-55
2022/07/01 08:44:08;;;;;;;11.03;8.77;;;;;;;28.65;43.50;95151.81;6234174;28;103999;-61
2022/07/01 08:47:14;;;;;;;12.00;9.30;;;;;;;28.54;43.86;95150.75;6233556;27;103251;-55
2022/07/01 08:50:17;;;;;;;9.10;8.30;;;;;;;28.51;43.88;95152.22;6229434;28;103883;-56
2022/07/01 08:53:25;;;;;;;9.40;8.47;;;;;;;28.54;43.85;95148.84;6222065;27;103241;-56
2022/07/01 08:56:45;;;;;;;9.60;8.13;;;;;;;28.62;43.96;95153.28;6233633;27;103220;-56
2022/07/01 09:00:03;;;;;;;9.90;8.03;;;;;;;28.71;43.27;95145.03;6233216;27;103328;-58
2022/07/01 09:03:07;;;;;;;9.43;8.47;;;;;;;28.68;43.64;95139.56;6223535;28;104154;-56
2022/07/01 09:06:15;;;;;;;9.63;8.60;;;;;;;28.63;43.51;95144.09;6233308;27;103016;-56
2022/07/01 09:09:20;;;;;;;10.97;8.20;;;;;;;28.49;43.15;95141.03;6233431;27;102782;-56
2022/07/01 09:12:23;;;;;;;10.37;8.30;;;;;;;28.47;44.26;95148.66;6236551;27;103125;-55
2022/07/01 09:15:27;;;;;;;10.40;8.70;;;;;;;28.45;43.64;95150.88;6228010;28;103376;-57
2022/07/01 09:18:32;;;;;;;10.90;8.40;;;;;;;28.47;42.66;95145.19;6237816;27;103015;-56
2022/07/01 09:21:35;;;;;;;8.70;7.83;;;;;;;28.44;43.92;95146.63;6237846;27;103287;-56
2022/07/01 09:24:41;;;;;;;10.77;8.27;;;;;;;28.43;42.75;95144.28;6234380;27;103226;-57
2022/07/01 09:27:45;;;;;;;9.20;8.30;;;;;;;28.38;42.76;95139.91;6231088;27;103242;-55
2022/07/01 09:30:51;;;;;;;9.20;7.87;;;;;;;28.36;42.88;95142.16;6236767;28;102938;-56
2022/07/01 09:34:13;;;;;;;10.60;8.40;;;;;;;28.41;43.17;95143.84;6237731;27;103940;-56
2022/07/01 09:37:18;;;;;;;9.33;8.43;;;;;;;28.46;42.71;95139.03;6226045;28;103379;-56
2022/07/01 09:40:21;;;;;;;11.63;8.50;;;;;;;28.50;42.39;95134.50;6237471;27;103275;-56
2022/07/01 09:43:25;;;;;;;10.20;8.50;;;;;;;28.49;42.49;95130.25;6236810;27;103156;-56
2022/07/01 09:46:28;;;;;;;9.90;8.90;;;;;;;28.50;42.60;95134.50;6237974;28;104140;-56
2022/07/01 09:49:33;;;;;;;11.43;8.33;;;;;;;28.55;42.34;95126.16;6226045;27;103103;-56
2022/07/01 09:52:37;;;;;;;8.60;7.80;;;;;;;28.62;41.98;95134.44;6237159;27;103190;-55
2022/07/01 09:55:40;;;;;;;8.57;7.77;;;;;;;28.71;41.41;95128.88;6237565;28;104219;-56
2022/07/01 09:58:44;;;;;;;9.07;7.00;;;;;;;28.71;40.57;95120.00;6232314;27;103408;-56
2022/07/01 10:01:47;;;;;;;7.40;6.70;;;;;;;28.74;39.85;95119.34;6230772;28;104391;-55
2022/07/01 10:04:57;;;;;;;8.87;7.00;;;;;;;28.95;39.30;95117.19;6236513;27;102974;-56
2022/07/01 10:08:15;;;;;;;10.23;6.80;;;;;;;29.03;39.11;95113.50;6236736;27;103149;-56
2022/07/01 10:12:08;;;;;;;10.80;6.90;;;;;;;29.04;38.14;95104.31;6226941;28;104058;-56
2022/07/01 10:15:16;;;;;;;8.53;5.63;;;;;;;28.87;36.29;95113.50;6191004;27;103260;-56
2022/07/01 10:18:21;;;;;;;6.57;6.03;;;;;;;28.70;37.31;95113.84;6236820;27;103116;-57
2022/07/01 10:21:31;;;;;;;6.47;5.97;;;;;;;28.56;38.75;95105.41;6231255;27;104129;-56
2022/07/01 10:24:34;;;;;;;6.90;6.30;;;;;;;28.43;39.72;95102.00;6231791;27;103196;-56
2022/07/01 10:27:37;;;;;;;10.03;7.30;;;;;;;28.29;39.70;95099.69;6236029;27;103043;-55
2022/07/01 10:30:50;;;;;;;8.87;8.10;;;;;;;28.19;40.87;95096.72;6236265;27;103216;-56
2022/07/01 10:33:57;;;;;;;8.97;7.60;;;;;;;28.17;40.14;95090.91;6223557;27;103014;-57
2022/07/01 10:37:08;;;;;;;6.80;6.20;;;;;;;28.09;40.30;95081.88;6236267;27;103741;-58
2022/07/01 10:40:12;;;;;;;8.73;7.90;;;;;;;28.17;40.81;95082.81;6236319;27;102992;-56
2022/07/01 10:43:17;;;;;;;8.87;8.03;;;;;;;28.20;40.88;95076.75;6235835;27;102866;-56
2022/07/01 10:46:43;;;;;;;8.90;8.23;;;;;;;28.25;40.30;95063.84;6225360;28;103093;-56
2022/07/01 10:49:58;;;;;;;7.90;7.40;;;;;;;28.36;40.30;95064.88;6235980;28;104129;-56
2022/07/01 10:53:04;;;;;;;9.50;7.97;;;;;;;28.44;39.89;95068.56;6236035;27;103243;-55
2022/07/01 10:56:07;;;;;;;8.80;8.00;;;;;;;28.48;39.26;95061.38;6226225;27;103054;-56
2022/07/01 10:59:19;;;;;;;8.50;7.70;;;;;;;28.52;39.33;95067.63;6236279;27;103364;-57
2022/07/01 11:02:24;;;;;;;7.40;6.90;;;;;;;28.55;39.18;95071.53;6236115;28;103926;-56
2022/07/01 11:05:27;;;;;;;7.80;7.00;;;;;;;28.58;39.30;95073.56;6235058;28;104349;-56
2022/07/01 11:08:32;;;;;;;8.30;7.57;;;;;;;28.49;38.98;95060.25;6225294;28;104222;-56
2022/07/01 11:11:35;;;;;;;7.53;6.90;;;;;;;28.57;39.79;95072.78;6235649;28;104473;-56
2022/07/01 11:14:40;;;;;;;7.93;7.23;;;;;;;28.43;39.72;95067.00;6235981;28;104455;-56
2022/07/01 11:17:46;;;;;;;8.00;7.40;;;;;;;28.29;40.03;95063.94;6235695;28;104095;-56
2022/07/01 11:20:49;;;;;;;8.67;7.97;;;;;;;28.21;39.85;95062.16;6226387;28;105069;-56
2022/07/01 11:23:57;;;;;;;7.40;6.80;;;;;;;28.27;39.44;95066.19;6235158;27;103170;-55
2022/07/01 11:27:06;;;;;;;7.20;6.50;;;;;;;28.23;38.80;95062.63;6235271;27;103294;-57
2022/07/01 11:30:12;;;;;;;7.10;6.60;;;;;;;28.19;39.12;95050.97;6226485;27;104070;-57
2022/07/01 11:33:15;;;;;;;6.83;6.30;;;;;;;28.15;37.83;95053.56;6233255;27;103272;-56
2022/07/01 11:39:41;;;;;;;6.60;6.00;;;;;;;28.10;37.46;95053.06;6235673;28;104175;-56
2022/07/01 11:42:46;;;;;;;6.80;6.10;;;;;;;28.28;35.60;95052.38;6223990;27;104369;-56
2022/07/01 11:45:49;;;;;;;6.23;5.63;;;;;;;28.42;33.50;95048.50;6235548;27;104152;-56
2022/07/01 11:48:53;;;;;;;6.50;5.87;;;;;;;28.49;33.33;95046.78;6234541;27;103069;-56
2022/07/01 11:51:58;;;;;;;6.20;5.67;;;;;;;28.47;34.70;95043.66;6235214;28;103977;-56
2022/07/01 11:55:02;;;;;;;6.20;5.70;;;;;;;28.45;35.44;95040.50;6225759;28;103931;-56
2022/07/01 11:58:44;;;;;;;6.90;6.33;;;;;;;28.46;35.72;95034.03;6235658;28;104981;-56
2022/07/01 12:01:56;;;;;;;7.80;7.10;;;;;;;28.45;35.10;95032.44;6235124;27;103199;-58
2022/07/01 12:05:01;;;;;;;7.40;6.90;;;;;;;28.59;35.01;95043.59;6224742;27;105878;-56
2022/07/01 12:08:05;;;;;;;6.13;5.63;;;;;;;28.68;33.81;95032.63;6233815;27;103389;-56
2022/07/01 12:11:10;;;;;;;6.47;5.87;;;;;;;28.77;33.17;95029.75;6234503;27;104005;-56
2022/07/01 12:14:13;;;;;;;5.50;5.10;;;;;;;28.75;32.99;95013.94;6234360;28;103171;-56
2022/07/01 12:17:17;;;;;;;5.30;5.00;;;;;;;28.64;32.81;95024.47;6224577;27;103249;-56
2022/07/01 12:20:32;;;;;;;5.93;5.53;;;;;;;28.54;33.53;95019.59;6234752;27;104413;-57
2022/07/01 12:23:36;;;;;;;5.37;4.97;;;;;;;28.54;33.74;95018.81;6234277;27;102990;-56
2022/07/01 12:26:50;;;;;;;5.43;4.93;;;;;;;28.63;33.62;95016.72;6228527;27;103360;-56
2022/07/01 12:29:54;;;;;;;5.60;5.10;;;;;;;28.60;34.02;95014.75;6235118;27;104099;-56
2022/07/01 12:32:58;;;;;;;8.70;7.00;;;;;;;28.70;33.19;95018.81;6233421;28;103096;-56
2022/07/01 12:36:03;;;;;;;5.50;5.00;;;;;;;28.69;32.73;95018.03;6233711;27;103097;-57
2022/07/01 12:39:07;;;;;;;6.90;5.30;;;;;;;28.59;34.09;95013.19;6222458;27;103112;-56
2022/07/01 12:42:21;;;;;;;6.27;5.67;;;;;;;28.65;36.24;95011.78;6234495;28;104322;-56
2022/07/01 12:45:26;;;;;;;6.70;6.10;;;;;;;28.70;36.86;95006.13;6236247;27;103203;-56
2022/07/01 12:48:30;;;;;;;5.90;5.50;;;;;;;28.75;37.68;95000.47;6238366;27;104324;-56
2022/07/01 12:51:33;;;;;;;6.07;5.67;;;;;;;28.75;37.49;95013.16;6228008;27;103622;-56
2022/07/01 12:54:38;;;;;;;6.63;6.13;;;;;;;28.74;37.92;95017.00;6238423;28;104081;-56
2022/07/01 12:57:43;;;;;;;7.13;6.43;;;;;;;28.78;38.83;95010.56;6238078;27;103012;-56
2022/07/01 13:00:47;;;;;;;6.60;5.50;;;;;;;28.82;38.30;95007.94;6232498;27;103194;-56
2022/07/01 13:03:50;;;;;;;6.23;5.77;;;;;;;28.85;38.67;95012.63;6235471;27;103619;-56
2022/07/01 13:06:54;;;;;;;6.53;6.13;;;;;;;28.85;38.58;95016.09;6238336;28;104122;-57
2022/07/01 13:09:57;;;;;;;6.53;6.00;;;;;;;28.89;38.22;95016.94;6237389;27;103248;-56
2022/07/01 13:13:03;;;;;;;6.50;5.90;;;;;;;28.88;37.53;95001.91;6226750;27;102962;-55
2022/07/01 13:16:06;;;;;;;6.97;6.30;;;;;;;28.89;37.51;95011.56;6237991;28;104081;-55
2022/07/01 13:19:09;;;;;;;6.90;6.40;;;;;;;28.82;37.61;95014.09;6237930;27;102988;-55
2022/07/01 13:22:12;;;;;;;6.60;6.10;;;;;;;28.73;36.86;95008.13;6238058;27;103300;-56
2022/07/01 13:25:16;;;;;;;6.80;6.23;;;;;;;28.67;37.14;95008.72;6227142;28;104578;-56
2022/07/01 13:28:20;;;;;;;6.17;5.67;;;;;;;28.59;37.55;95005.88;6238073;27;103097;-56
2022/07/01 13:31:23;;;;;;;6.23;5.80;;;;;;;28.53;38.15;95003.78;6237937;28;104226;-55
2022/07/01 13:34:27;;;;;;;6.50;5.90;;;;;;;28.50;38.51;95004.47;6232845;28;102782;-57
2022/07/01 13:37:30;;;;;;;6.97;6.30;;;;;;;28.57;39.95;95013.53;6232388;27;104210;-54
2022/07/01 13:40:34;;;;;;;7.00;6.50;;;;;;;28.45;40.42;95005.50;6236571;27;103361;-54
2022/07/01 13:43:39;;;;;;;6.97;6.37;;;;;;;28.36;40.71;95011.03;6238085;27;103186;-53
2022/07/01 13:46:42;;;;;;;7.30;6.70;;;;;;;28.40;40.43;95010.38;6227095;27;105078;-52
2022/07/01 13:49:49;;;;;;;7.07;6.47;;;;;;;28.49;40.40;95006.41;6237509;28;103015;-53
2022/07/01 13:52:52;;;;;;;6.97;6.37;;;;;;;28.55;40.34;95002.31;6237339;27;103306;-54
2022/07/01 13:55:55;;;;;;;7.00;6.40;;;;;;;28.62;40.08;94999.78;6235660;27;103407;-54
2022/07/01 13:59:00;;;;;;;6.83;6.20;;;;;;;28.65;39.82;95004.47;6227393;27;103930;-54
2022/07/01 14:02:05;;;;;;;6.60;6.10;;;;;;;28.68;40.42;94994.13;6236999;27;103062;-53
2022/07/01 14:05:09;;;;;;;6.80;6.40;;;;;;;28.70;40.32;94997.25;6236659;27;103271;-52
2022/07/01 14:08:12;;;;;;;6.67;6.20;;;;;;;28.75;40.05;95005.09;6233234;27;103931;-53
2022/07/01 14:11:15;;;;;;;9.47;6.53;;;;;;;28.78;39.97;95009.78;6230671;27;103294;-52
2022/07/01 14:14:19;;;;;;;7.07;6.57;;;;;;;28.75;40.31;95005.09;6237130;27;103353;-55
2022/07/01 14:17:23;;;;;;;6.80;6.30;;;;;;;28.75;39.22;94991.63;6234585;27;103417;-60
2022/07/01 14:20:26;;;;;;;7.43;6.23;;;;;;;28.77;39.42;95000.13;6208042;27;104497;-59
2022/07/01 14:23:29;;;;;;;6.70;6.20;;;;;;;28.67;39.59;94993.34;6211245;28;102996;-58
2022/07/01 14:26:34;;;;;;;6.80;6.20;;;;;;;28.61;39.19;94989.38;6211772;28;103986;-58
2022/07/01 14:29:39;;;;;;;6.93;6.43;;;;;;;28.56;39.70;94993.13;6211867;28;103132;-58
2022/07/01 14:32:44;;;;;;;7.13;6.40;;;;;;;28.57;38.99;94989.28;6201136;28;103476;-58
2022/07/01 14:35:47;;;;;;;7.67;6.97;;;;;;;28.69;39.52;94988.41;6232315;28;103415;-59